createdAt,value
2018-12-07T00:00:11.557Z,91.79
2018-12-07T00:01:11.512Z,91.82
2018-12-07T00:02:11.611Z,91.78
2018-12-07T00:03:11.535Z,91.9
2018-12-07T00:04:11.588Z,91.85
2018-12-07T00:05:11.537Z,91.89
2018-12-07T00:06:11.544Z,91.6
2018-12-07T00:07:11.614Z,91.64
2018-12-07T00:08:11.752Z,91.79
2018-12-07T00:09:11.621Z,91.78
2018-12-07T00:10:11.562Z,91.76
2018-12-07T00:11:11.570Z,91.82
2018-12-07T00:12:11.577Z,91.89
2018-12-07T00:13:11.606Z,91.9
2018-12-07T00:14:13.210Z,91.9
2018-12-07T00:15:11.514Z,91.86
2018-12-07T00:16:11.661Z,91.76
2018-12-07T00:17:11.754Z,91.84
2018-12-07T00:18:11.788Z,91.86
2018-12-07T00:19:11.567Z,91.96
2018-12-07T00:20:11.605Z,91.94
2018-12-07T00:21:11.607Z,91.96
2018-12-07T00:22:11.673Z,91.91
2018-12-07T00:23:11.619Z,91.99
2018-12-07T00:24:11.659Z,91.83
2018-12-07T00:25:11.702Z,91.92
2018-12-07T00:26:11.697Z,92.05
2018-12-07T00:27:11.626Z,91.86
2018-12-07T00:28:11.531Z,91.76
2018-12-07T00:29:11.663Z,91.8
2018-12-07T00:30:11.549Z,91.9
2018-12-07T00:31:11.704Z,91.92
2018-12-07T00:32:11.535Z,92.01
2018-12-07T00:33:11.626Z,92.2
2018-12-07T00:34:11.617Z,92.21
2018-12-07T00:35:11.757Z,92.24
2018-12-07T00:36:11.559Z,92.15
2018-12-07T00:37:11.903Z,92.3
2018-12-07T00:38:11.528Z,92.16
2018-12-07T00:39:11.530Z,92.16
2018-12-07T00:40:11.696Z,92.1
2018-12-07T00:41:11.631Z,92.32
2018-12-07T00:42:11.966Z,92.4
2018-12-07T00:43:11.660Z,92.34
2018-12-07T00:44:11.711Z,92.45
2018-12-07T00:45:11.646Z,92.58
2018-12-07T00:46:11.539Z,92.51
2018-12-07T00:47:11.792Z,92.46
2018-12-07T00:48:11.714Z,92.61
2018-12-07T00:49:11.550Z,92.74
2018-12-07T00:50:11.556Z,92.7
2018-12-07T00:51:11.513Z,92.64
2018-12-07T00:52:11.607Z,92.8
2018-12-07T00:53:11.490Z,92.85
2018-12-07T00:54:11.851Z,92.89
2018-12-07T00:55:11.688Z,93.03
2018-12-07T00:56:11.674Z,93.06
2018-12-07T00:57:11.688Z,93.04
2018-12-07T00:58:11.924Z,93.11
2018-12-07T00:59:11.710Z,93.06
2018-12-07T01:00:11.547Z,93.25
2018-12-07T01:01:11.481Z,93.2
2018-12-07T01:02:11.658Z,93.13
2018-12-07T01:03:11.528Z,93.08
2018-12-07T01:04:11.552Z,93.04
2018-12-07T01:05:11.482Z,93.07
2018-12-07T01:06:11.695Z,93.17
2018-12-07T01:07:11.498Z,93.17
2018-12-07T01:08:11.819Z,93.18
2018-12-07T01:09:11.901Z,93.08
2018-12-07T01:10:11.648Z,93.19
2018-12-07T01:11:11.677Z,93
2018-12-07T01:12:11.718Z,93.18
2018-12-07T01:13:11.516Z,93.01
2018-12-07T01:14:11.639Z,93.06
2018-12-07T01:15:11.843Z,92.97
2018-12-07T01:16:11.505Z,92.87
2018-12-07T01:17:11.520Z,92.91
2018-12-07T01:18:11.549Z,92.94
2018-12-07T01:19:11.669Z,93.08
2018-12-07T01:20:11.596Z,92.97
2018-12-07T01:21:11.658Z,93.05
2018-12-07T01:22:11.655Z,92.96
2018-12-07T01:23:11.658Z,93.03
2018-12-07T01:24:11.686Z,93.14
2018-12-07T01:25:11.670Z,93.37
2018-12-07T01:26:11.598Z,93.56
2018-12-07T01:27:11.620Z,93.54
2018-12-07T01:28:11.628Z,93.6
2018-12-07T01:29:11.535Z,93.52
2018-12-07T01:30:11.504Z,93.63
2018-12-07T01:31:11.617Z,93.83
2018-12-07T01:32:11.490Z,93.71
2018-12-07T01:33:11.489Z,93.64
2018-12-07T01:34:11.419Z,93.67
2018-12-07T01:35:11.455Z,93.61
2018-12-07T01:36:11.477Z,93.5
2018-12-07T01:37:11.516Z,93.49
2018-12-07T01:38:11.593Z,93.37
2018-12-07T01:39:11.453Z,93.28
2018-12-07T01:40:11.455Z,93.23
2018-12-07T01:41:11.428Z,93.15
2018-12-07T01:42:11.453Z,93.21
2018-12-07T01:43:11.489Z,93.2
2018-12-07T01:44:11.652Z,93.15
2018-12-07T01:45:11.464Z,93.14
2018-12-07T01:46:11.432Z,93.1
2018-12-07T01:47:11.448Z,93.02
2018-12-07T01:48:11.471Z,93.08
2018-12-07T01:49:11.420Z,93.14
2018-12-07T01:50:11.555Z,93.13
2018-12-07T01:51:11.434Z,93.24
2018-12-07T01:52:11.442Z,93.05
2018-12-07T01:53:11.943Z,93.03
2018-12-07T01:54:11.588Z,93.27
2018-12-07T01:55:11.415Z,93.02
2018-12-07T01:56:11.615Z,93.04
2018-12-07T01:57:11.740Z,93.26
2018-12-07T01:58:11.461Z,93.25
2018-12-07T01:59:11.522Z,93.28
2018-12-07T02:00:11.472Z,93.3
2018-12-07T02:01:11.642Z,93.42
2018-12-07T02:02:11.541Z,93.52
2018-12-07T02:03:11.423Z,93.52
2018-12-07T02:04:11.402Z,93.55
2018-12-07T02:05:11.579Z,93.63
2018-12-07T02:06:11.494Z,93.69
2018-12-07T02:07:11.447Z,93.8
2018-12-07T02:08:11.571Z,93.78
2018-12-07T02:09:11.475Z,93.95
2018-12-07T02:10:11.463Z,93.76
2018-12-07T02:11:11.391Z,93.83
2018-12-07T02:12:11.390Z,93.93
2018-12-07T02:13:11.384Z,93.65
2018-12-07T02:14:11.747Z,93.87
2018-12-07T02:15:11.503Z,93.98
2018-12-07T02:16:11.457Z,94.03
2018-12-07T02:17:11.412Z,94.04
2018-12-07T02:18:11.518Z,93.93
2018-12-07T02:19:11.393Z,94.05
2018-12-07T02:20:11.436Z,94.1
2018-12-07T02:21:11.454Z,94.06
2018-12-07T02:22:11.591Z,94.04
2018-12-07T02:23:11.595Z,93.89
2018-12-07T02:24:11.334Z,93.97
2018-12-07T02:25:11.755Z,93.79
2018-12-07T02:26:11.399Z,93.93
2018-12-07T02:27:11.574Z,93.84
2018-12-07T02:28:11.436Z,94.12
2018-12-07T02:29:11.341Z,93.93
2018-12-07T02:30:11.612Z,93.96
2018-12-07T02:31:11.376Z,94.06
2018-12-07T02:32:11.455Z,94.08
2018-12-07T02:33:11.392Z,94.07
2018-12-07T02:34:11.606Z,93.91
2018-12-07T02:35:11.361Z,93.91
2018-12-07T02:36:11.362Z,94.02
2018-12-07T02:37:11.532Z,93.97
2018-12-07T02:38:11.708Z,94.07
2018-12-07T02:39:11.538Z,94.09
2018-12-07T02:40:11.527Z,94.07
2018-12-07T02:41:11.572Z,94.09
2018-12-07T02:42:11.384Z,94.13
2018-12-07T02:43:11.364Z,94.05
2018-12-07T02:44:11.545Z,93.98
2018-12-07T02:45:11.358Z,93.95
2018-12-07T02:46:11.402Z,93.92
2018-12-07T02:47:11.409Z,93.88
2018-12-07T02:48:11.716Z,94.02
2018-12-07T02:49:11.384Z,93.92
2018-12-07T02:50:11.338Z,93.96
2018-12-07T02:51:11.518Z,93.8
2018-12-07T02:52:11.527Z,93.91
2018-12-07T02:53:11.711Z,93.84
2018-12-07T02:54:11.971Z,93.96
2018-12-07T02:55:11.355Z,93.8
2018-12-07T02:56:11.353Z,93.88
2018-12-07T02:57:11.748Z,93.83
2018-12-07T02:58:11.340Z,93.92
2018-12-07T02:59:11.441Z,93.85
2018-12-07T03:00:11.320Z,93.79
2018-12-07T03:01:11.410Z,93.75
2018-12-07T03:02:11.746Z,93.79
2018-12-07T03:03:11.411Z,93.56
2018-12-07T03:04:11.427Z,93.46
2018-12-07T03:05:11.312Z,93.57
2018-12-07T03:06:11.340Z,93.57
2018-12-07T03:07:11.405Z,93.54
2018-12-07T03:08:11.585Z,93.65
2018-12-07T03:09:11.392Z,93.72
2018-12-07T03:10:11.599Z,93.44
2018-12-07T03:11:11.323Z,93.48
2018-12-07T03:12:11.379Z,93.57
2018-12-07T03:13:11.449Z,93.66
2018-12-07T03:14:11.327Z,93.52
2018-12-07T03:15:11.322Z,93.46
2018-12-07T03:16:11.348Z,93.47
2018-12-07T03:17:11.445Z,93.46
2018-12-07T03:18:11.290Z,93.39
2018-12-07T03:19:11.300Z,93.43
2018-12-07T03:20:11.358Z,93.43
2018-12-07T03:21:11.335Z,93.37
2018-12-07T03:22:11.305Z,93.27
2018-12-07T03:23:11.325Z,93.13
2018-12-07T03:24:11.289Z,93.11
2018-12-07T03:25:11.398Z,93
2018-12-07T03:26:11.333Z,93.11
2018-12-07T03:27:11.510Z,93.1
2018-12-07T03:28:11.341Z,92.91
2018-12-07T03:29:11.332Z,92.86
2018-12-07T03:30:11.309Z,92.79
2018-12-07T03:31:11.386Z,92.82
2018-12-07T03:32:11.629Z,92.87
2018-12-07T03:33:11.459Z,92.75
2018-12-07T03:34:11.282Z,92.68
2018-12-07T03:35:11.333Z,92.56
2018-12-07T03:36:11.547Z,92.5
2018-12-07T03:37:11.283Z,92.5
2018-12-07T03:38:11.349Z,92.41
2018-12-07T03:39:11.269Z,92.45
2018-12-07T03:40:11.481Z,92.46
2018-12-07T03:41:11.583Z,92.24
2018-12-07T03:42:11.440Z,92.31
2018-12-07T03:43:11.346Z,92.26
2018-12-07T03:44:11.446Z,92.26
2018-12-07T03:45:11.458Z,92.31
2018-12-07T03:46:11.272Z,92.35
2018-12-07T03:47:11.323Z,92.33
2018-12-07T03:48:11.284Z,92.37
2018-12-07T03:49:11.305Z,92.29
2018-12-07T03:50:11.373Z,92.34
2018-12-07T03:51:11.481Z,92.46
2018-12-07T03:52:11.446Z,92.36
2018-12-07T03:53:11.311Z,92.42
2018-12-07T03:54:11.298Z,92.39
2018-12-07T03:55:11.294Z,92.37
2018-12-07T03:56:11.355Z,92.49
2018-12-07T03:57:11.647Z,92.43
2018-12-07T03:58:11.359Z,92.29
2018-12-07T03:59:11.332Z,92.2
2018-12-07T04:00:11.273Z,92.07
2018-12-07T04:01:11.428Z,92.16
2018-12-07T04:02:11.315Z,92.13
2018-12-07T04:03:11.339Z,92.13
2018-12-07T04:04:11.409Z,92.04
2018-12-07T04:05:11.326Z,91.98
2018-12-07T04:06:11.239Z,92.04
2018-12-07T04:07:11.348Z,92.01
2018-12-07T04:08:11.358Z,91.88
2018-12-07T04:09:11.464Z,91.82
2018-12-07T04:10:11.533Z,91.7
2018-12-07T04:11:11.348Z,91.74
2018-12-07T04:12:11.279Z,91.64
2018-12-07T04:13:11.262Z,91.48
2018-12-07T04:14:11.498Z,91.32
2018-12-07T04:15:11.312Z,91.26
2018-12-07T04:16:11.253Z,91.27
2018-12-07T04:17:11.254Z,91.1
2018-12-07T04:18:11.264Z,91.04
2018-12-07T04:19:11.271Z,91.12
2018-12-07T04:20:11.224Z,91
2018-12-07T04:21:11.222Z,91.02
2018-12-07T04:22:11.445Z,91.04
2018-12-07T04:23:11.405Z,91.07
2018-12-07T04:24:11.437Z,90.92
2018-12-07T04:25:11.237Z,90.95
2018-12-07T04:26:11.330Z,90.74
2018-12-07T04:27:11.408Z,90.84
2018-12-07T04:28:11.333Z,90.65
2018-12-07T04:29:12.056Z,90.73
2018-12-07T04:30:11.246Z,90.82
2018-12-07T04:31:11.259Z,90.72
2018-12-07T04:32:11.422Z,90.6
2018-12-07T04:33:11.319Z,90.39
2018-12-07T04:34:11.381Z,90.27
2018-12-07T04:35:11.345Z,90.22
2018-12-07T04:36:11.287Z,90.32
2018-12-07T04:37:11.427Z,90.4
2018-12-07T04:38:11.330Z,90.38
2018-12-07T04:39:11.360Z,90.3
2018-12-07T04:40:11.276Z,90.25
2018-12-07T04:41:11.346Z,90.27
2018-12-07T04:42:11.391Z,90.26
2018-12-07T04:43:11.698Z,90.23
2018-12-07T04:44:11.483Z,90.04
2018-12-07T04:45:11.382Z,89.8
2018-12-07T04:46:11.462Z,89.72
2018-12-07T04:47:11.375Z,89.66
2018-12-07T04:48:11.255Z,89.76
2018-12-07T04:49:11.286Z,89.93
2018-12-07T04:50:11.252Z,89.89
2018-12-07T04:51:11.323Z,89.66
2018-12-07T04:52:11.198Z,89.71
2018-12-07T04:53:11.204Z,89.72
2018-12-07T04:54:11.369Z,89.74
2018-12-07T04:55:11.230Z,89.7
2018-12-07T04:56:11.208Z,89.78
2018-12-07T04:57:11.228Z,89.85
2018-12-07T04:58:11.369Z,89.81
2018-12-07T04:59:11.513Z,89.83
2018-12-07T05:00:11.280Z,89.98
2018-12-07T05:01:11.213Z,89.89
2018-12-07T05:02:11.306Z,89.81
2018-12-07T05:03:11.308Z,89.61
2018-12-07T05:04:11.183Z,89.38
2018-12-07T05:05:11.328Z,89.57
2018-12-07T05:06:11.234Z,89.69
2018-12-07T05:07:11.238Z,89.51
2018-12-07T05:08:11.206Z,89.47
2018-12-07T05:09:11.352Z,89.5
2018-12-07T05:10:11.206Z,89.6
2018-12-07T05:11:11.238Z,89.61
2018-12-07T05:12:11.219Z,89.64
2018-12-07T05:13:11.171Z,89.67
2018-12-07T05:14:11.733Z,89.73
2018-12-07T05:15:11.192Z,89.58
2018-12-07T05:16:11.328Z,89.64
2018-12-07T05:17:11.302Z,89.66
2018-12-07T05:18:11.310Z,89.81
2018-12-07T05:19:11.731Z,89.65
2018-12-07T05:20:11.334Z,89.6
2018-12-07T05:21:11.320Z,89.51
2018-12-07T05:22:11.314Z,89.68
2018-12-07T05:23:11.386Z,89.77
2018-12-07T05:24:11.228Z,89.93
2018-12-07T05:25:11.225Z,89.99
2018-12-07T05:26:11.292Z,90.17
2018-12-07T05:27:11.204Z,90.2
2018-12-07T05:28:11.178Z,90.35
2018-12-07T05:29:11.182Z,90.56
2018-12-07T05:30:11.552Z,90.63
2018-12-07T05:31:12.018Z,90.72
2018-12-07T05:32:11.179Z,90.83
2018-12-07T05:33:11.186Z,90.82
2018-12-07T05:34:11.543Z,90.87
2018-12-07T05:35:11.510Z,90.84
2018-12-07T05:36:11.364Z,90.69
2018-12-07T05:37:11.555Z,90.52
2018-12-07T05:38:11.352Z,90.56
2018-12-07T05:39:11.973Z,90.56
2018-12-07T05:40:11.273Z,90.42
2018-12-07T05:41:11.315Z,90.14
2018-12-07T05:42:11.146Z,90.33
2018-12-07T05:43:11.462Z,90.26
2018-12-07T05:44:11.259Z,89.98
2018-12-07T05:45:11.380Z,90.28
2018-12-07T05:46:11.551Z,90.15
2018-12-07T05:47:11.220Z,90.28
2018-12-07T05:48:11.168Z,89.96
2018-12-07T05:49:11.964Z,90.07
2018-12-07T05:50:11.306Z,90.1
2018-12-07T05:51:11.175Z,90.23
2018-12-07T05:52:11.349Z,90.23
2018-12-07T05:53:11.306Z,90.27
2018-12-07T05:54:11.132Z,90.19
2018-12-07T05:55:11.139Z,90.3
2018-12-07T05:56:11.199Z,90.39
2018-12-07T05:57:11.196Z,90.39
2018-12-07T05:58:11.159Z,90.47
2018-12-07T05:59:11.269Z,90.43
2018-12-07T06:00:11.507Z,90.45
2018-12-07T06:01:11.131Z,90.51
2018-12-07T06:02:11.324Z,90.62
2018-12-07T06:03:11.195Z,90.62
2018-12-07T06:04:11.241Z,90.58
2018-12-07T06:05:11.270Z,90.7
2018-12-07T06:06:11.234Z,90.78
2018-12-07T06:07:11.278Z,90.88
2018-12-07T06:08:11.228Z,90.78
2018-12-07T06:09:11.293Z,90.6
2018-12-07T06:10:11.180Z,90.58
2018-12-07T06:11:11.275Z,90.54
2018-12-07T06:12:11.146Z,90.55
2018-12-07T06:13:11.132Z,90.24
2018-12-07T06:14:11.197Z,90.12
2018-12-07T06:15:11.570Z,90.16
2018-12-07T06:16:11.469Z,90.16
2018-12-07T06:17:11.394Z,90.01
2018-12-07T06:18:11.195Z,90.04
2018-12-07T06:19:11.398Z,90.26
2018-12-07T06:20:11.114Z,90.46
2018-12-07T06:21:11.243Z,90.23
2018-12-07T06:22:11.252Z,90.17
2018-12-07T06:23:11.082Z,90.12
2018-12-07T06:24:11.169Z,90.13
2018-12-07T06:25:11.198Z,90.1
2018-12-07T06:26:11.114Z,90.16
2018-12-07T06:27:11.094Z,90.06
2018-12-07T06:28:11.125Z,90.18
2018-12-07T06:29:11.430Z,90.15
2018-12-07T06:30:11.194Z,90.23
2018-12-07T06:31:12.173Z,90.26
2018-12-07T06:32:11.691Z,89.95
2018-12-07T06:33:11.090Z,90.03
2018-12-07T06:34:11.394Z,90.17
2018-12-07T06:35:11.066Z,90.11
2018-12-07T06:36:11.073Z,90.18
2018-12-07T06:37:11.082Z,90.18
2018-12-07T06:38:11.085Z,90.22
2018-12-07T06:39:11.299Z,90.21
2018-12-07T06:40:11.086Z,90.16
2018-12-07T06:41:11.086Z,90.09
2018-12-07T06:42:11.186Z,90.12
2018-12-07T06:43:11.374Z,89.85
2018-12-07T06:44:11.131Z,89.79
2018-12-07T06:45:11.079Z,89.81
2018-12-07T06:46:11.213Z,89.68
2018-12-07T06:47:11.230Z,89.75
2018-12-07T06:48:11.269Z,89.78
2018-12-07T06:49:11.271Z,89.68
2018-12-07T06:50:11.134Z,89.63
2018-12-07T06:51:11.283Z,89.33
2018-12-07T06:52:11.062Z,89.21
2018-12-07T06:53:11.196Z,89.39
2018-12-07T06:54:11.235Z,89.42
2018-12-07T06:55:11.057Z,89.48
2018-12-07T06:56:11.100Z,89.25
2018-12-07T06:57:11.039Z,88.88
2018-12-07T06:58:11.099Z,89.08
2018-12-07T06:59:11.146Z,88.94
2018-12-07T07:00:11.073Z,88.96
2018-12-07T07:01:11.251Z,88.47
2018-12-07T07:02:11.441Z,88.71
2018-12-07T07:03:11.160Z,88.67
2018-12-07T07:04:11.042Z,88.42
2018-12-07T07:05:11.275Z,88.27
2018-12-07T07:06:11.267Z,87.93
2018-12-07T07:07:11.246Z,87.94
2018-12-07T07:08:11.076Z,87.93
2018-12-07T07:09:11.156Z,87.82
2018-12-07T07:10:11.028Z,87.47
2018-12-07T07:11:11.166Z,87.67
2018-12-07T07:12:11.144Z,87.36
2018-12-07T07:13:11.231Z,87.4
2018-12-07T07:14:11.209Z,87.51
2018-12-07T07:15:11.052Z,87.71
2018-12-07T07:16:11.080Z,87.59
2018-12-07T07:17:11.422Z,87.54
2018-12-07T07:18:11.135Z,87.55
2018-12-07T07:19:11.069Z,87.45
2018-12-07T07:20:11.144Z,87.43
2018-12-07T07:21:11.845Z,86.99
2018-12-07T07:22:11.029Z,87.12
2018-12-07T07:23:11.036Z,87.33
2018-12-07T07:24:11.214Z,87.25
2018-12-07T07:25:11.097Z,86.77
2018-12-07T07:26:11.410Z,86.57
2018-12-07T07:27:11.047Z,86.51
2018-12-07T07:28:11.014Z,86.55
2018-12-07T07:29:11.205Z,86.61
2018-12-07T07:30:11.051Z,86.84
2018-12-07T07:31:11.864Z,86.78
2018-12-07T07:32:11.038Z,86.79
2018-12-07T07:33:11.103Z,86.65
2018-12-07T07:34:11.260Z,86.91
2018-12-07T07:35:11.192Z,86.88
2018-12-07T07:36:11.367Z,87.04
2018-12-07T07:37:11.087Z,86.67
2018-12-07T07:38:11.039Z,86.8
2018-12-07T07:39:11.131Z,86.51
2018-12-07T07:40:11.035Z,86.83
2018-12-07T07:41:11.194Z,87.02
2018-12-07T07:42:10.991Z,87.24
2018-12-07T07:43:11.066Z,87.29
2018-12-07T07:44:11.012Z,87.33
2018-12-07T07:45:11.092Z,87.37
2018-12-07T07:46:11.001Z,87.24
2018-12-07T07:47:11.016Z,87.4
2018-12-07T07:48:11.014Z,87.39
2018-12-07T07:49:11.565Z,87.36
2018-12-07T07:50:11.030Z,87.56
2018-12-07T07:51:11.178Z,87.29
2018-12-07T07:52:11.171Z,87.13
2018-12-07T07:53:11.283Z,87.15
2018-12-07T07:54:11.187Z,87.27
2018-12-07T07:55:11.165Z,87.25
2018-12-07T07:56:15.268Z,87.46
2018-12-07T07:57:10.998Z,87.35
2018-12-07T07:58:11.122Z,87.59
2018-12-07T07:59:10.968Z,87.54
2018-12-07T08:00:10.998Z,87.61
2018-12-07T08:01:11.314Z,87.45
2018-12-07T08:02:10.992Z,87.5
2018-12-07T08:03:10.994Z,87.46
2018-12-07T08:04:10.974Z,87.49
2018-12-07T08:05:10.994Z,87.55
2018-12-07T08:06:11.017Z,87.71
2018-12-07T08:07:11.033Z,87.62
2018-12-07T08:08:10.952Z,87.66
2018-12-07T08:09:11.012Z,87.76
2018-12-07T08:10:10.966Z,87.81
2018-12-07T08:11:11.022Z,87.77
2018-12-07T08:12:11.047Z,87.6
2018-12-07T08:13:10.986Z,87.68
2018-12-07T08:14:10.995Z,87.5
2018-12-07T08:15:11.007Z,87.52
2018-12-07T08:16:11.050Z,87.74
2018-12-07T08:17:10.979Z,87.5
2018-12-07T08:18:10.967Z,87.72
2018-12-07T08:19:10.953Z,87.52
2018-12-07T08:20:11.068Z,87.59
2018-12-07T08:21:10.996Z,87.64
2018-12-07T08:22:10.977Z,87.51
2018-12-07T08:23:14.595Z,87.41
2018-12-07T08:24:11.176Z,87.39
2018-12-07T08:25:11.023Z,87.15
2018-12-07T08:26:11.289Z,87.04
2018-12-07T08:27:11.086Z,86.83
2018-12-07T08:28:10.961Z,86.95
2018-12-07T08:29:11.057Z,87.06
2018-12-07T08:30:11.335Z,87.14
2018-12-07T08:31:11.796Z,87.03
2018-12-07T08:32:11.094Z,87.26
2018-12-07T08:33:10.987Z,87.34
2018-12-07T08:34:11.194Z,87.16
2018-12-07T08:35:11.796Z,86.93
2018-12-07T08:36:11.324Z,86.89
2018-12-07T08:37:11.237Z,87.02
2018-12-07T08:38:11.291Z,87.27
2018-12-07T08:39:10.930Z,87.27
2018-12-07T08:40:10.974Z,87.05
2018-12-07T08:41:11.050Z,87
2018-12-07T08:42:11.366Z,86.95
2018-12-07T08:43:11.065Z,86.9
2018-12-07T08:44:11.129Z,86.99
2018-12-07T08:45:10.944Z,86.75
2018-12-07T08:46:11.163Z,86.92
2018-12-07T08:47:11.253Z,86.88
2018-12-07T08:48:11.194Z,86.52
2018-12-07T08:49:11.062Z,86.5
2018-12-07T08:50:11.202Z,86.83
2018-12-07T08:51:10.941Z,86.57
2018-12-07T08:52:11.018Z,86.55
2018-12-07T08:53:11.399Z,86.4
2018-12-07T08:54:11.046Z,86.71
2018-12-07T08:55:10.982Z,86.45
2018-12-07T08:56:10.981Z,86.65
2018-12-07T08:57:11.023Z,86.31
2018-12-07T08:58:10.999Z,86.5
2018-12-07T08:59:11.200Z,86.64
2018-12-07T09:00:10.918Z,86.79
2018-12-07T09:01:11.074Z,86.58
2018-12-07T09:02:11.210Z,86.6
2018-12-07T09:03:11.140Z,86.56
2018-12-07T09:04:11.039Z,86.21
2018-12-07T09:05:11.025Z,86.57
2018-12-07T09:06:11.211Z,86.73
2018-12-07T09:07:10.984Z,86.83
2018-12-07T09:08:15.056Z,86.9
2018-12-07T09:09:11.079Z,86.8
2018-12-07T09:10:10.915Z,86.7
2018-12-07T09:11:10.897Z,86.82
2018-12-07T09:12:11.309Z,86.92
2018-12-07T09:13:11.212Z,86.85
2018-12-07T09:14:11.021Z,86.87
2018-12-07T09:15:10.971Z,86.88
2018-12-07T09:16:11.238Z,86.83
2018-12-07T09:17:10.985Z,86.61
2018-12-07T09:18:11.673Z,86.66
2018-12-07T09:19:10.925Z,86.66
2018-12-07T09:20:10.905Z,86.75
2018-12-07T09:21:11.016Z,86.7
2018-12-07T09:22:11.137Z,86.74
2018-12-07T09:23:11.158Z,86.74
2018-12-07T09:24:11.238Z,86.78
2018-12-07T09:25:11.091Z,86.92
2018-12-07T09:26:10.914Z,86.84
2018-12-07T09:27:10.889Z,86.8
2018-12-07T09:28:11.044Z,86.7
2018-12-07T09:29:11.375Z,86.66
2018-12-07T09:30:11.003Z,86.67
2018-12-07T09:31:11.092Z,86.46
2018-12-07T09:32:10.986Z,86.7
2018-12-07T09:33:10.976Z,86.58
2018-12-07T09:34:11.189Z,86.53
2018-12-07T09:35:11.017Z,86.5
2018-12-07T09:36:11.110Z,86.58
2018-12-07T09:37:11.098Z,86.46
2018-12-07T09:38:13.200Z,86.39
2018-12-07T09:39:11.121Z,86.33
2018-12-07T09:40:10.919Z,86.19
2018-12-07T09:41:10.907Z,86.35
2018-12-07T09:42:10.877Z,86.42
2018-12-07T09:43:10.931Z,86.15
2018-12-07T09:44:10.918Z,86.22
2018-12-07T09:45:10.981Z,86.26
2018-12-07T09:46:10.911Z,86.26
2018-12-07T09:47:11.045Z,86.38
2018-12-07T09:48:10.946Z,86.39
2018-12-07T09:49:10.954Z,86.37
2018-12-07T09:50:10.862Z,86.29
2018-12-07T09:51:11.144Z,86.24
2018-12-07T09:52:10.903Z,86.46
2018-12-07T09:53:10.910Z,86.43
2018-12-07T09:54:10.885Z,86.63
2018-12-07T09:55:10.886Z,86.72
2018-12-07T09:56:11.008Z,86.8
2018-12-07T09:57:11.157Z,86.93
2018-12-07T09:58:10.883Z,86.85
2018-12-07T09:59:10.877Z,86.9
2018-12-07T10:00:11.193Z,87.02
2018-12-07T10:01:10.983Z,86.94
2018-12-07T10:02:11.136Z,86.73
2018-12-07T10:03:11.125Z,86.73
2018-12-07T10:04:10.985Z,86.43
2018-12-07T10:05:11.220Z,86.58
2018-12-07T10:06:11.051Z,86.42
2018-12-07T10:07:11.045Z,86.65
2018-12-07T10:08:10.906Z,86.57
2018-12-07T10:09:11.651Z,86.54
2018-12-07T10:10:10.955Z,86.71
2018-12-07T10:11:10.959Z,86.53
2018-12-07T10:12:11.006Z,86.5
2018-12-07T10:13:10.973Z,86.58
2018-12-07T10:14:11.053Z,86.58
2018-12-07T10:15:10.910Z,86.48
2018-12-07T10:16:11.010Z,86.42
2018-12-07T10:17:11.055Z,86.66
2018-12-07T10:18:11.021Z,86.71
2018-12-07T10:19:11.002Z,86.55
2018-12-07T10:20:11.047Z,86.38
2018-12-07T10:21:11.011Z,86.12
2018-12-07T10:22:11.318Z,86.01
2018-12-07T10:23:10.922Z,85.91
2018-12-07T10:24:10.829Z,86.07
2018-12-07T10:25:10.902Z,86.23
2018-12-07T10:26:10.984Z,86.29
2018-12-07T10:27:10.890Z,86.31
2018-12-07T10:28:10.988Z,86.18
2018-12-07T10:29:10.921Z,86.21
2018-12-07T10:30:10.874Z,86.28
2018-12-07T10:31:11.071Z,86.08
2018-12-07T10:32:10.821Z,86.02
2018-12-07T10:33:10.999Z,85.95
2018-12-07T10:34:10.936Z,85.98
2018-12-07T10:35:10.865Z,85.71
2018-12-07T10:36:10.954Z,85.93
2018-12-07T10:37:11.062Z,85.88
2018-12-07T10:38:10.960Z,86.11
2018-12-07T10:39:10.878Z,86.08
2018-12-07T10:40:10.981Z,86.1
2018-12-07T10:41:10.946Z,86.12
2018-12-07T10:42:10.971Z,86.02
2018-12-07T10:43:11.110Z,85.92
2018-12-07T10:44:10.821Z,85.74
2018-12-07T10:45:10.930Z,85.71
2018-12-07T10:46:10.910Z,85.44
2018-12-07T10:47:11.076Z,85.51
2018-12-07T10:48:10.896Z,85.45
2018-12-07T10:49:11.181Z,85.54
2018-12-07T10:50:10.788Z,85.49
2018-12-07T10:51:10.835Z,85.65
2018-12-07T10:52:10.935Z,85.67
2018-12-07T10:53:10.891Z,85.71
2018-12-07T10:54:11.068Z,85.66
2018-12-07T10:55:10.974Z,85.42
2018-12-07T10:56:11.088Z,85.32
2018-12-07T10:57:10.915Z,85.18
2018-12-07T10:58:11.051Z,85.4
2018-12-07T10:59:10.772Z,85.6
2018-12-07T11:00:10.778Z,85.75
2018-12-07T11:01:10.810Z,85.79
2018-12-07T11:02:10.996Z,85.81
2018-12-07T11:03:10.795Z,85.53
2018-12-07T11:04:10.763Z,85.55
2018-12-07T11:05:10.939Z,85.77
2018-12-07T11:06:11.004Z,85.77
2018-12-07T11:07:10.869Z,85.77
2018-12-07T11:08:11.092Z,85.78
2018-12-07T11:09:10.841Z,85.87
2018-12-07T11:10:10.831Z,86.05
2018-12-07T11:11:10.831Z,85.77
2018-12-07T11:12:10.784Z,85.94
2018-12-07T11:13:11.024Z,85.98
2018-12-07T11:14:10.927Z,86.03
2018-12-07T11:15:10.992Z,86.12
2018-12-07T11:16:11.003Z,86.26
2018-12-07T11:17:10.781Z,86.28
2018-12-07T11:18:10.796Z,86.25
2018-12-07T11:19:10.763Z,85.8
2018-12-07T11:20:10.812Z,85.87
2018-12-07T11:21:11.042Z,85.36
2018-12-07T11:22:10.893Z,85.37
2018-12-07T11:23:10.972Z,85.5
2018-12-07T11:24:10.739Z,85.35
2018-12-07T11:25:10.804Z,85.51
2018-12-07T11:26:10.751Z,85.7
2018-12-07T11:27:10.757Z,85.99
2018-12-07T11:28:10.732Z,86.13
2018-12-07T11:29:10.751Z,86.51
2018-12-07T11:30:10.738Z,86.8
2018-12-07T11:31:10.760Z,86.93
2018-12-07T11:32:10.857Z,87.46
2018-12-07T11:33:10.708Z,87.05
2018-12-07T11:34:10.740Z,87.67
2018-12-07T11:35:10.722Z,88.3
2018-12-07T11:36:11.020Z,87.48
2018-12-07T11:37:10.800Z,87.29
2018-12-07T11:38:10.987Z,87.78
2018-12-07T11:39:12.638Z,87.74
2018-12-07T11:40:11.086Z,87.97
2018-12-07T11:41:10.970Z,87.5
2018-12-07T11:42:11.039Z,87.01
2018-12-07T11:43:10.926Z,86.77
2018-12-07T11:44:10.870Z,86.87
2018-12-07T11:45:10.817Z,87.2
2018-12-07T11:46:10.758Z,87.05
2018-12-07T11:47:10.907Z,87.12
2018-12-07T11:48:10.909Z,87.09
2018-12-07T11:49:10.957Z,87.25
2018-12-07T11:50:10.824Z,86.96
2018-12-07T11:51:10.754Z,87.03
2018-12-07T11:52:10.903Z,86.85
2018-12-07T11:53:10.991Z,86.69
2018-12-07T11:54:11.160Z,86.74
2018-12-07T11:55:10.886Z,86.67
2018-12-07T11:56:10.938Z,86.86
2018-12-07T11:57:10.914Z,87.12
2018-12-07T11:58:11.083Z,87.31
2018-12-07T11:59:11.221Z,87.18
2018-12-07T12:00:10.792Z,87.34
2018-12-07T12:01:10.765Z,87.23
2018-12-07T12:02:10.999Z,86.8
2018-12-07T12:03:10.948Z,86.97
2018-12-07T12:04:11.049Z,86.99
2018-12-07T12:05:11.032Z,86.96
2018-12-07T12:06:10.906Z,87.02
2018-12-07T12:07:10.831Z,86.7
2018-12-07T12:08:10.844Z,86.53
2018-12-07T12:09:10.832Z,86.53
2018-12-07T12:10:10.968Z,86.02
2018-12-07T12:11:10.971Z,86.22
2018-12-07T12:12:11.062Z,86.52
2018-12-07T12:13:10.994Z,86.74
2018-12-07T12:14:10.724Z,86.84
2018-12-07T12:15:10.735Z,86.67
2018-12-07T12:16:10.798Z,86.66
2018-12-07T12:17:10.890Z,86.59
2018-12-07T12:18:10.721Z,86.69
2018-12-07T12:19:10.916Z,86.81
2018-12-07T12:20:10.773Z,86.94
2018-12-07T12:21:11.189Z,86.77
2018-12-07T12:22:10.856Z,86.86
2018-12-07T12:23:10.918Z,87.03
2018-12-07T12:24:10.798Z,87.12
2018-12-07T12:25:10.682Z,87.05
2018-12-07T12:26:10.967Z,87.17
2018-12-07T12:27:10.692Z,87.26
2018-12-07T12:28:10.681Z,87.45
2018-12-07T12:29:10.656Z,87.65
2018-12-07T12:30:10.814Z,87.65
2018-12-07T12:31:10.712Z,87.85
2018-12-07T12:32:10.672Z,87.97
2018-12-07T12:33:10.674Z,88.09
2018-12-07T12:34:10.741Z,88.17
2018-12-07T12:35:10.868Z,88.27
2018-12-07T12:36:16.916Z,88.51
2018-12-07T12:37:10.892Z,88.21
2018-12-07T12:38:10.845Z,88.29
2018-12-07T12:39:10.668Z,88.24
2018-12-07T12:40:10.658Z,88.42
2018-12-07T12:41:10.630Z,88.51
2018-12-07T12:42:10.795Z,88.62
2018-12-07T12:43:10.784Z,88.52
2018-12-07T12:44:10.809Z,88.37
2018-12-07T12:45:10.612Z,88.24
2018-12-07T12:46:11.446Z,88.12
2018-12-07T12:47:10.851Z,87.8
2018-12-07T12:48:10.969Z,87.9
2018-12-07T12:49:10.639Z,87.59
2018-12-07T12:50:10.679Z,87.76
2018-12-07T12:51:10.824Z,87.8
2018-12-07T12:52:10.636Z,87.34
2018-12-07T12:53:10.669Z,87.51
2018-12-07T12:54:10.619Z,87.52
2018-12-07T12:55:10.654Z,87.62